sensor_id;sensor_type;location;lat;lon;timestamp;pressure;altitude;pressure_sealevel;temperature;humidity
60258;BME280;46115;44.484;11.314;2024-03-02T00:03:24;99386.53;;;12.06;100.00
60258;BME280;46115;44.484;11.314;2024-03-02T00:07:27;99380.78;;;11.88;100.00
60258;BME280;46115;44.484;11.314;2024-03-02T00:11:34;99388.94;;;11.85;100.00
60258;BME280;46115;44.484;11.314;2024-03-02T00:15:42;99399.91;;;12.04;100.00
60258;BME280;46115;44.484;11.314;2024-03-02T00:19:44;99393.69;;;11.93;100.00
60258;BME280;46115;44.484;11.314;2024-03-02T00:23:48;99408.03;;;12.14;100.00
60258;BME280;46115;44.484;11.314;2024-03-02T00:27:52;99405.41;;;12.01;100.00
60258;BME280;46115;44.484;11.314;2024-03-02T00:31:55;99403.72;;;12.00;100.00
60258;BME280;46115;44.484;11.314;2024-03-02T00:35:59;99412.13;;;12.31;100.00
60258;BME280;46115;44.484;11.314;2024-03-02T00:40:02;99409.69;;;11.91;100.00
60258;BME280;46115;44.484;11.314;2024-03-02T00:44:07;99408.16;;;12.36;100.00
60258;BME280;46115;44.484;11.314;2024-03-02T00:48:15;99404.34;;;12.04;100.00
60258;BME280;46115;44.484;11.314;2024-03-02T00:52:17;99409.44;;;12.07;100.00
60258;BME280;46115;44.484;11.314;2024-03-02T00:56:20;99415.25;;;12.12;100.00
60258;BME280;46115;44.484;11.314;2024-03-02T01:00:24;99418.22;;;12.20;100.00
60258;BME280;46115;44.484;11.314;2024-03-02T01:04:26;99412.97;;;11.69;100.00
60258;BME280;46115;44.484;11.314;2024-03-02T01:08:29;99410.66;;;11.52;100.00
60258;BME280;46115;44.484;11.314;2024-03-02T01:12:31;99416.97;;;12.00;100.00
60258;BME280;46115;44.484;11.314;2024-03-02T01:16:35;99415.13;;;12.13;100.00
60258;BME280;46115;44.484;11.314;2024-03-02T01:20:38;99422.94;;;12.28;100.00
60258;BME280;46115;44.484;11.314;2024-03-02T01:24:40;99414.97;;;11.66;100.00
60258;BME280;46115;44.484;11.314;2024-03-02T01:28:43;99406.66;;;11.46;100.00
60258;BME280;46115;44.484;11.314;2024-03-02T01:32:47;99415.28;;;11.99;100.00
60258;BME280;46115;44.484;11.314;2024-03-02T01:36:49;99407.84;;;12.41;100.00
60258;BME280;46115;44.484;11.314;2024-03-02T01:40:52;99415.50;;;11.96;100.00
60258;BME280;46115;44.484;11.314;2024-03-02T01:44:56;99418.16;;;11.71;100.00
60258;BME280;46115;44.484;11.314;2024-03-02T01:49:00;99419.34;;;11.54;100.00
60258;BME280;46115;44.484;11.314;2024-03-02T01:53:02;99415.50;;;11.33;100.00
60258;BME280;46115;44.484;11.314;2024-03-02T01:57:05;99418.50;;;11.53;100.00
60258;BME280;46115;44.484;11.314;2024-03-02T02:01:08;99418.16;;;11.33;100.00
60258;BME280;46115;44.484;11.314;2024-03-02T02:05:12;99415.09;;;11.39;100.00
60258;BME280;46115;44.484;11.314;2024-03-02T02:09:15;99408.41;;;11.71;100.00
60258;BME280;46115;44.484;11.314;2024-03-02T02:13:19;99413.63;;;11.60;100.00
60258;BME280;46115;44.484;11.314;2024-03-02T02:17:22;99354.38;;;11.12;100.00
60258;BME280;46115;44.484;11.314;2024-03-02T02:21:26;99408.97;;;12.13;100.00
60258;BME280;46115;44.484;11.314;2024-03-02T02:25:28;99400.94;;;12.14;100.00
60258;BME280;46115;44.484;11.314;2024-03-02T02:29:31;99403.00;;;11.73;100.00
60258;BME280;46115;44.484;11.314;2024-03-02T02:33:33;99401.84;;;12.26;100.00
60258;BME280;46115;44.484;11.314;2024-03-02T02:37:38;99401.81;;;11.77;100.00
60258;BME280;46115;44.484;11.314;2024-03-02T02:41:41;99404.56;;;12.01;100.00
60258;BME280;46115;44.484;11.314;2024-03-02T02:45:44;99397.56;;;12.36;100.00
60258;BME280;46115;44.484;11.314;2024-03-02T02:49:46;99407.13;;;11.77;100.00
60258;BME280;46115;44.484;11.314;2024-03-02T02:53:50;99406.59;;;11.97;100.00
60258;BME280;46115;44.484;11.314;2024-03-02T02:57:53;99399.88;;;12.17;100.00
60258;BME280;46115;44.484;11.314;2024-03-02T03:01:55;99396.56;;;12.26;100.00
60258;BME280;46115;44.484;11.314;2024-03-02T03:05:58;99402.00;;;12.12;100.00
60258;BME280;46115;44.484;11.314;2024-03-02T03:10:02;99404.94;;;12.44;100.00
60258;BME280;46115;44.484;11.314;2024-03-02T03:14:05;99402.84;;;12.12;100.00
60258;BME280;46115;44.484;11.314;2024-03-02T03:18:08;99408.28;;;12.35;100.00
60258;BME280;46115;44.484;11.314;2024-03-02T03:22:11;99409.16;;;11.61;100.00
60258;BME280;46115;44.484;11.314;2024-03-02T03:26:15;99408.72;;;11.79;100.00
60258;BME280;46115;44.484;11.314;2024-03-02T03:30:18;99399.66;;;12.20;100.00
60258;BME280;46115;44.484;11.314;2024-03-02T03:34:20;99406.59;;;11.97;100.00
60258;BME280;46115;44.484;11.314;2024-03-02T03:38:23;99407.34;;;11.99;100.00
60258;BME280;46115;44.484;11.314;2024-03-02T03:42:27;99405.44;;;11.76;100.00
60258;BME280;46115;44.484;11.314;2024-03-02T03:46:29;99402.78;;;11.76;100.00
60258;BME280;46115;44.484;11.314;2024-03-02T03:50:32;99408.88;;;11.52;100.00
60258;BME280;46115;44.484;11.314;2024-03-02T03:54:34;99414.03;;;11.79;100.00
60258;BME280;46115;44.484;11.314;2024-03-02T03:58:39;99425.25;;;11.57;100.00
60258;BME280;46115;44.484;11.314;2024-03-02T04:02:42;99421.97;;;11.41;100.00
60258;BME280;46115;44.484;11.314;2024-03-02T04:06:45;99420.28;;;11.40;100.00
60258;BME280;46115;44.484;11.314;2024-03-02T04:10:47;99392.44;;;11.85;100.00
60258;BME280;46115;44.484;11.314;2024-03-02T04:14:51;99423.91;;;12.27;100.00
60258;BME280;46115;44.484;11.314;2024-03-02T04:18:53;99419.66;;;11.62;100.00
60258;BME280;46115;44.484;11.314;2024-03-02T04:22:56;99424.41;;;11.70;100.00
60258;BME280;46115;44.484;11.314;2024-03-02T04:26:59;99438.53;;;11.83;100.00
60258;BME280;46115;44.484;11.314;2024-03-02T04:31:03;99431.16;;;11.99;100.00
60258;BME280;46115;44.484;11.314;2024-03-02T04:35:06;99434.03;;;11.96;100.00
60258;BME280;46115;44.484;11.314;2024-03-02T04:39:11;99439.34;;;11.96;100.00
60258;BME280;46115;44.484;11.314;2024-03-02T04:43:13;99443.16;;;11.92;100.00
60258;BME280;46115;44.484;11.314;2024-03-02T04:47:18;99451.09;;;11.92;100.00
60258;BME280;46115;44.484;11.314;2024-03-02T04:51:21;99456.69;;;11.62;100.00
60258;BME280;46115;44.484;11.314;2024-03-02T04:55:23;99454.66;;;11.28;100.00
60258;BME280;46115;44.484;11.314;2024-03-02T04:59:51;99461.34;;;11.33;100.00
60258;BME280;46115;44.484;11.314;2024-03-02T05:03:55;99451.19;;;11.14;100.00
60258;BME280;46115;44.484;11.314;2024-03-02T05:07:58;99462.41;;;11.43;100.00
60258;BME280;46115;44.484;11.314;2024-03-02T05:12:00;99472.09;;;11.82;100.00
60258;BME280;46115;44.484;11.314;2024-03-02T05:16:32;99452.25;;;11.50;100.00
60258;BME280;46115;44.484;11.314;2024-03-02T05:20:36;99473.63;;;11.72;100.00
60258;BME280;46115;44.484;11.314;2024-03-02T05:24:39;99480.94;;;11.69;100.00
60258;BME280;46115;44.484;11.314;2024-03-02T05:28:42;99483.38;;;11.72;100.00
60258;BME280;46115;44.484;11.314;2024-03-02T05:32:44;99488.34;;;11.64;100.00
60258;BME280;46115;44.484;11.314;2024-03-02T05:36:48;99498.88;;;11.78;100.00
60258;BME280;46115;44.484;11.314;2024-03-02T05:40:50;99496.34;;;11.89;100.00
60258;BME280;46115;44.484;11.314;2024-03-02T05:44:53;99498.22;;;11.62;100.00
60258;BME280;46115;44.484;11.314;2024-03-02T05:48:55;99495.78;;;12.22;100.00
60258;BME280;46115;44.484;11.314;2024-03-02T05:52:59;99500.47;;;11.80;100.00
60258;BME280;46115;44.484;11.314;2024-03-02T05:57:01;99502.91;;;11.83;100.00
60258;BME280;46115;44.484;11.314;2024-03-02T06:01:18;99507.69;;;11.26;100.00
60258;BME280;46115;44.484;11.314;2024-03-02T06:05:20;99504.78;;;11.69;100.00
60258;BME280;46115;44.484;11.314;2024-03-02T06:09:24;99507.91;;;11.23;100.00
60258;BME280;46115;44.484;11.314;2024-03-02T06:13:27;99508.22;;;11.83;100.00
60258;BME280;46115;44.484;11.314;2024-03-02T06:17:29;99511.88;;;11.68;100.00
60258;BME280;46115;44.484;11.314;2024-03-02T06:21:32;99516.09;;;11.45;100.00
60258;BME280;46115;44.484;11.314;2024-03-02T06:25:36;99513.97;;;11.63;100.00
60258;BME280;46115;44.484;11.314;2024-03-02T06:29:38;99521.72;;;11.53;100.00
60258;BME280;46115;44.484;11.314;2024-03-02T06:33:41;99520.22;;;11.75;100.00
60258;BME280;46115;44.484;11.314;2024-03-02T06:37:43;99522.41;;;11.43;100.00
60258;BME280;46115;44.484;11.314;2024-03-02T06:41:47;99537.53;;;11.01;100.00
60258;BME280;46115;44.484;11.314;2024-03-02T06:45:49;99538.28;;;11.30;100.00
60258;BME280;46115;44.484;11.314;2024-03-02T06:49:52;99534.22;;;11.12;100.00
60258;BME280;46115;44.484;11.314;2024-03-02T06:53:55;99545.97;;;11.20;100.00
60258;BME280;46115;44.484;11.314;2024-03-02T06:57:59;99551.09;;;11.09;100.00
60258;BME280;46115;44.484;11.314;2024-03-02T07:02:01;99556.97;;;11.14;100.00
60258;BME280;46115;44.484;11.314;2024-03-02T07:06:04;99549.81;;;11.29;100.00
60258;BME280;46115;44.484;11.314;2024-03-02T07:10:07;99555.38;;;11.51;100.00
60258;BME280;46115;44.484;11.314;2024-03-02T07:14:11;99563.72;;;11.45;100.00
60258;BME280;46115;44.484;11.314;2024-03-02T07:18:13;99570.84;;;11.70;100.00
60258;BME280;46115;44.484;11.314;2024-03-02T07:22:16;99577.91;;;11.84;100.00
60258;BME280;46115;44.484;11.314;2024-03-02T07:26:19;99582.78;;;11.90;100.00
60258;BME280;46115;44.484;11.314;2024-03-02T07:30:23;99586.66;;;12.48;100.00
60258;BME280;46115;44.484;11.314;2024-03-02T07:34:25;99587.56;;;12.72;100.00
60258;BME280;46115;44.484;11.314;2024-03-02T07:38:28;99572.47;;;12.49;100.00
60258;BME280;46115;44.484;11.314;2024-03-02T07:42:30;99590.38;;;12.45;100.00
60258;BME280;46115;44.484;11.314;2024-03-02T07:46:34;99597.38;;;12.34;100.00
60258;BME280;46115;44.484;11.314;2024-03-02T07:50:37;99601.78;;;12.71;100.00
60258;BME280;46115;44.484;11.314;2024-03-02T07:54:40;99606.94;;;12.24;100.00
60258;BME280;46115;44.484;11.314;2024-03-02T07:58:42;99609.91;;;12.32;100.00
60258;BME280;46115;44.484;11.314;2024-03-02T08:02:48;99619.41;;;12.47;100.00
60258;BME280;46115;44.484;11.314;2024-03-02T08:06:52;99621.25;;;12.34;100.00
60258;BME280;46115;44.484;11.314;2024-03-02T08:10:55;99628.44;;;12.44;100.00
60258;BME280;46115;44.484;11.314;2024-03-02T08:14:58;99630.00;;;13.09;100.00
60258;BME280;46115;44.484;11.314;2024-03-02T08:19:01;99631.31;;;13.03;100.00
60258;BME280;46115;44.484;11.314;2024-03-02T08:23:04;99631.97;;;12.94;100.00
60258;BME280;46115;44.484;11.314;2024-03-02T08:27:07;99643.22;;;13.34;100.00
60258;BME280;46115;44.484;11.314;2024-03-02T08:31:10;99636.16;;;13.22;100.00
60258;BME280;46115;44.484;11.314;2024-03-02T08:35:14;99643.97;;;13.36;100.00
60258;BME280;46115;44.484;11.314;2024-03-02T08:39:17;99654.91;;;13.32;100.00
60258;BME280;46115;44.484;11.314;2024-03-02T08:43:20;99652.38;;;13.30;100.00
60258;BME280;46115;44.484;11.314;2024-03-02T08:47:23;99644.81;;;13.37;100.00
60258;BME280;46115;44.484;11.314;2024-03-02T08:51:27;99654.41;;;13.51;100.00
60258;BME280;46115;44.484;11.314;2024-03-02T08:55:30;99659.28;;;13.57;100.00
60258;BME280;46115;44.484;11.314;2024-03-02T08:59:32;99664.16;;;13.50;100.00
60258;BME280;46115;44.484;11.314;2024-03-02T09:03:35;99670.63;;;13.59;100.00
60258;BME280;46115;44.484;11.314;2024-03-02T09:07:39;99667.78;;;13.49;100.00
60258;BME280;46115;44.484;11.314;2024-03-02T09:11:42;99663.56;;;13.70;100.00
60258;BME280;46115;44.484;11.314;2024-03-02T09:15:44;99670.03;;;13.19;100.00
60258;BME280;46115;44.484;11.314;2024-03-02T09:19:47;99667.28;;;13.44;100.00
60258;BME280;46115;44.484;11.314;2024-03-02T09:23:51;99645.09;;;13.08;100.00
60258;BME280;46115;44.484;11.314;2024-03-02T09:27:53;99678.59;;;13.59;100.00
60258;BME280;46115;44.484;11.314;2024-03-02T09:31:55;99669.41;;;13.87;100.00
60258;BME280;46115;44.484;11.314;2024-03-02T09:35:58;99670.53;;;13.95;100.00
60258;BME280;46115;44.484;11.314;2024-03-02T09:40:02;99674.06;;;14.07;100.00
60258;BME280;46115;44.484;11.314;2024-03-02T09:44:05;99653.31;;;13.77;100.00
60258;BME280;46115;44.484;11.314;2024-03-02T09:48:08;99680.19;;;13.96;100.00
60258;BME280;46115;44.484;11.314;2024-03-02T09:52:10;99685.84;;;13.57;100.00
60258;BME280;46115;44.484;11.314;2024-03-02T09:56:14;99671.22;;;13.86;100.00
60258;BME280;46115;44.484;11.314;2024-03-02T10:00:19;99687.84;;;14.12;100.00
60258;BME280;46115;44.484;11.314;2024-03-02T10:04:21;99687.44;;;14.29;100.00
60258;BME280;46115;44.484;11.314;2024-03-02T10:08:24;99693.72;;;14.40;100.00
60258;BME280;46115;44.484;11.314;2024-03-02T10:12:28;99691.41;;;13.89;100.00
60258;BME280;46115;44.484;11.314;2024-03-02T10:16:30;99697.34;;;13.68;100.00
60258;BME280;46115;44.484;11.314;2024-03-02T10:20:33;99698.03;;;13.59;100.00
60258;BME280;46115;44.484;11.314;2024-03-02T10:24:37;99702.47;;;13.83;100.00
60258;BME280;46115;44.484;11.314;2024-03-02T10:28:46;99671.41;;;13.24;100.00
60258;BME280;46115;44.484;11.314;2024-03-02T10:32:49;99694.53;;;13.09;100.00
60258;BME280;46115;44.484;11.314;2024-03-02T10:36:51;99691.97;;;13.33;100.00
60258;BME280;46115;44.484;11.314;2024-03-02T10:40:54;99701.44;;;13.12;100.00
60258;BME280;46115;44.484;11.314;2024-03-02T10:45:01;99698.06;;;13.47;100.00
60258;BME280;46115;44.484;11.314;2024-03-02T10:49:05;99702.91;;;13.29;100.00
60258;BME280;46115;44.484;11.314;2024-03-02T10:53:07;99696.97;;;13.25;100.00
60258;BME280;46115;44.484;11.314;2024-03-02T10:57:11;99697.22;;;13.70;100.00
60258;BME280;46115;44.484;11.314;2024-03-02T11:01:18;99706.84;;;13.10;100.00
60258;BME280;46115;44.484;11.314;2024-03-02T11:05:26;99696.47;;;13.44;100.00
60258;BME280;46115;44.484;11.314;2024-03-02T11:09:33;99689.38;;;13.45;100.00
60258;BME280;46115;44.484;11.314;2024-03-02T11:13:36;99684.34;;;13.29;100.00
60258;BME280;46115;44.484;11.314;2024-03-02T11:17:42;99681.16;;;13.24;100.00
60258;BME280;46115;44.484;11.314;2024-03-02T11:21:45;99671.81;;;13.31;100.00
60258;BME280;46115;44.484;11.314;2024-03-02T11:25:49;99669.94;;;13.44;100.00
60258;BME280;46115;44.484;11.314;2024-03-02T11:29:51;99677.19;;;13.66;100.00
60258;BME280;46115;44.484;11.314;2024-03-02T11:33:55;99680.88;;;13.03;100.00
60258;BME280;46115;44.484;11.314;2024-03-02T11:37:57;99670.94;;;13.30;100.00
60258;BME280;46115;44.484;11.314;2024-03-02T11:42:01;99675.25;;;13.20;100.00
60258;BME280;46115;44.484;11.314;2024-03-02T11:46:05;99673.38;;;13.33;100.00
60258;BME280;46115;44.484;11.314;2024-03-02T11:50:10;99671.69;;;13.32;100.00
60258;BME280;46115;44.484;11.314;2024-03-02T11:54:13;99672.03;;;13.28;100.00
60258;BME280;46115;44.484;11.314;2024-03-02T11:58:16;99654.34;;;13.39;100.00
60258;BME280;46115;44.484;11.314;2024-03-02T12:02:21;99648.81;;;13.19;100.00
60258;BME280;46115;44.484;11.314;2024-03-02T12:06:26;99653.72;;;13.36;100.00
60258;BME280;46115;44.484;11.314;2024-03-02T12:10:29;99638.69;;;13.48;100.00
60258;BME280;46115;44.484;11.314;2024-03-02T12:14:33;99652.59;;;13.51;100.00
60258;BME280;46115;44.484;11.314;2024-03-02T12:18:36;99648.03;;;13.53;100.00
60258;BME280;46115;44.484;11.314;2024-03-02T12:22:39;99643.00;;;13.37;100.00
60258;BME280;46115;44.484;11.314;2024-03-02T12:26:42;99638.56;;;13.49;100.00
60258;BME280;46115;44.484;11.314;2024-03-02T12:30:45;99641.75;;;13.54;100.00
60258;BME280;46115;44.484;11.314;2024-03-02T12:34:50;99638.16;;;13.55;100.00
60258;BME280;46115;44.484;11.314;2024-03-02T12:38:55;99633.22;;;13.97;100.00
60258;BME280;46115;44.484;11.314;2024-03-02T12:42:58;99638.41;;;13.39;100.00
60258;BME280;46115;44.484;11.314;2024-03-02T12:47:00;99634.34;;;13.47;100.00
60258;BME280;46115;44.484;11.314;2024-03-02T12:51:03;99629.63;;;13.02;100.00
60258;BME280;46115;44.484;11.314;2024-03-02T12:55:08;99622.38;;;13.04;100.00
60258;BME280;46115;44.484;11.314;2024-03-02T12:59:18;99620.28;;;13.33;100.00
60258;BME280;46115;44.484;11.314;2024-03-02T13:03:21;99611.06;;;13.85;100.00
60258;BME280;46115;44.484;11.314;2024-03-02T13:07:25;99611.19;;;13.84;100.00
60258;BME280;46115;44.484;11.314;2024-03-02T13:11:29;99611.13;;;13.61;100.00
60258;BME280;46115;44.484;11.314;2024-03-02T13:15:32;99605.94;;;14.17;100.00
60258;BME280;46115;44.484;11.314;2024-03-02T13:19:35;99608.94;;;14.01;100.00
60258;BME280;46115;44.484;11.314;2024-03-02T13:23:38;99610.00;;;14.45;100.00
60258;BME280;46115;44.484;11.314;2024-03-02T13:27:42;99615.84;;;14.04;100.00
60258;BME280;46115;44.484;11.314;2024-03-02T13:31:44;99614.31;;;14.24;100.00
60258;BME280;46115;44.484;11.314;2024-03-02T13:35:47;99580.94;;;14.20;100.00
60258;BME280;46115;44.484;11.314;2024-03-02T13:39:49;99615.88;;;14.26;100.00
60258;BME280;46115;44.484;11.314;2024-03-02T13:43:53;99614.81;;;14.29;100.00
60258;BME280;46115;44.484;11.314;2024-03-02T13:47:55;99615.44;;;14.66;99.99
60258;BME280;46115;44.484;11.314;2024-03-02T13:51:58;99614.53;;;14.10;100.00
60258;BME280;46115;44.484;11.314;2024-03-02T13:56:02;99607.50;;;14.09;100.00
60258;BME280;46115;44.484;11.314;2024-03-02T14:00:08;99598.47;;;14.11;100.00
60258;BME280;46115;44.484;11.314;2024-03-02T14:04:13;99613.06;;;14.05;100.00
60258;BME280;46115;44.484;11.314;2024-03-02T14:08:15;99613.34;;;14.36;98.48
60258;BME280;46115;44.484;11.314;2024-03-02T14:12:18;99613.16;;;14.61;95.10
60258;BME280;46115;44.484;11.314;2024-03-02T14:16:22;99618.59;;;14.71;93.12
60258;BME280;46115;44.484;11.314;2024-03-02T14:20:25;99621.59;;;14.44;92.04
60258;BME280;46115;44.484;11.314;2024-03-02T14:24:27;99623.28;;;14.56;94.14
60258;BME280;46115;44.484;11.314;2024-03-02T14:28:30;99627.03;;;14.76;94.61
60258;BME280;46115;44.484;11.314;2024-03-02T14:32:34;99614.91;;;15.06;91.53
60258;BME280;46115;44.484;11.314;2024-03-02T14:36:36;99618.94;;;15.00;91.17
60258;BME280;46115;44.484;11.314;2024-03-02T14:40:39;99613.13;;;14.95;91.19
60258;BME280;46115;44.484;11.314;2024-03-02T14:44:41;99616.63;;;14.95;93.59
60258;BME280;46115;44.484;11.314;2024-03-02T14:48:46;99627.19;;;14.63;93.32
60258;BME280;46115;44.484;11.314;2024-03-02T14:52:48;99623.28;;;14.56;93.54
60258;BME280;46115;44.484;11.314;2024-03-02T14:56:51;99629.22;;;14.49;92.36
60258;BME280;46115;44.484;11.314;2024-03-02T15:00:53;99624.25;;;14.78;90.17
60258;BME280;46115;44.484;11.314;2024-03-02T15:04:57;99630.50;;;15.10;90.65
60258;BME280;46115;44.484;11.314;2024-03-02T15:09:00;99635.53;;;14.59;93.08
60258;BME280;46115;44.484;11.314;2024-03-02T15:13:03;99632.88;;;14.59;92.93
60258;BME280;46115;44.484;11.314;2024-03-02T15:17:06;99631.47;;;14.42;94.17
60258;BME280;46115;44.484;11.314;2024-03-02T15:21:10;99627.41;;;14.83;93.93
60258;BME280;46115;44.484;11.314;2024-03-02T15:25:13;99637.53;;;14.89;94.24
60258;BME280;46115;44.484;11.314;2024-03-02T15:29:17;99639.00;;;14.48;97.53
60258;BME280;46115;44.484;11.314;2024-03-02T15:33:20;99642.41;;;14.61;95.41
60258;BME280;46115;44.484;11.314;2024-03-02T15:37:27;99631.00;;;14.37;97.12
60258;BME280;46115;44.484;11.314;2024-03-02T15:41:29;99645.00;;;14.28;98.89
60258;BME280;46115;44.484;11.314;2024-03-02T15:45:32;99649.16;;;14.54;95.53
60258;BME280;46115;44.484;11.314;2024-03-02T15:49:35;99640.53;;;14.40;96.56
60258;BME280;46115;44.484;11.314;2024-03-02T15:53:39;99645.19;;;14.02;98.93
60258;BME280;46115;44.484;11.314;2024-03-02T15:57:41;99650.69;;;14.23;98.77
60258;BME280;46115;44.484;11.314;2024-03-02T16:01:44;99645.66;;;13.96;99.98
60258;BME280;46115;44.484;11.314;2024-03-02T16:05:46;99652.69;;;14.20;99.09
60258;BME280;46115;44.484;11.314;2024-03-02T16:09:50;99647.63;;;14.17;99.14
60258;BME280;46115;44.484;11.314;2024-03-02T16:13:53;99648.63;;;14.27;97.56
60258;BME280;46115;44.484;11.314;2024-03-02T16:17:55;99648.44;;;14.52;97.71
60258;BME280;46115;44.484;11.314;2024-03-02T16:21:59;99645.47;;;14.22;99.90
60258;BME280;46115;44.484;11.314;2024-03-02T16:26:03;99651.34;;;14.49;97.55
60258;BME280;46115;44.484;11.314;2024-03-02T16:30:08;99654.97;;;14.02;100.00
60258;BME280;46115;44.484;11.314;2024-03-02T16:34:10;99664.47;;;13.34;100.00
60258;BME280;46115;44.484;11.314;2024-03-02T16:38:13;99652.69;;;13.73;100.00
60258;BME280;46115;44.484;11.314;2024-03-02T16:42:17;99657.72;;;13.89;100.00
60258;BME280;46115;44.484;11.314;2024-03-02T16:46:21;99664.69;;;13.31;100.00
60258;BME280;46115;44.484;11.314;2024-03-02T16:50:23;99663.66;;;13.45;100.00
60258;BME280;46115;44.484;11.314;2024-03-02T16:54:26;99668.41;;;13.16;100.00
60258;BME280;46115;44.484;11.314;2024-03-02T16:58:29;99671.75;;;13.20;100.00
60258;BME280;46115;44.484;11.314;2024-03-02T17:02:32;99669.13;;;12.94;100.00
60258;BME280;46115;44.484;11.314;2024-03-02T17:06:34;99675.25;;;13.20;100.00
60258;BME280;46115;44.484;11.314;2024-03-02T17:10:37;99675.34;;;13.06;100.00
60258;BME280;46115;44.484;11.314;2024-03-02T17:14:42;99689.47;;;13.19;100.00
60258;BME280;46115;44.484;11.314;2024-03-02T17:18:45;99693.56;;;13.10;100.00
60258;BME280;46115;44.484;11.314;2024-03-02T17:22:48;99700.25;;;13.16;100.00
60258;BME280;46115;44.484;11.314;2024-03-02T17:26:50;99699.78;;;12.86;100.00
60258;BME280;46115;44.484;11.314;2024-03-02T17:30:54;99688.66;;;12.68;100.00
60258;BME280;46115;44.484;11.314;2024-03-02T17:34:57;99700.03;;;12.57;100.00
60258;BME280;46115;44.484;11.314;2024-03-02T23:06:08;99719.34;;;10.69;87.32
60258;BME280;46115;44.484;11.314;2024-03-02T23:10:11;99716.13;;;11.07;86.46
60258;BME280;46115;44.484;11.314;2024-03-02T23:14:13;99718.88;;;11.05;87.78
60258;BME280;46115;44.484;11.314;2024-03-02T23:18:16;99708.50;;;10.59;91.90
60258;BME280;46115;44.484;11.314;2024-03-02T23:22:19;99705.00;;;10.73;90.57
60258;BME280;46115;44.484;11.314;2024-03-02T23:26:23;99717.06;;;11.06;89.80
60258;BME280;46115;44.484;11.314;2024-03-02T23:30:26;99715.38;;;11.19;88.60
60258;BME280;46115;44.484;11.314;2024-03-02T23:34:30;99718.59;;;10.67;91.99
60258;BME280;46115;44.484;11.314;2024-03-02T23:38:34;99721.81;;;10.86;92.48
60258;BME280;46115;44.484;11.314;2024-03-02T23:42:36;99729.09;;;11.11;88.09
60258;BME280;46115;44.484;11.314;2024-03-02T23:46:39;99719.06;;;11.02;88.06
60258;BME280;46115;44.484;11.314;2024-03-02T23:50:41;99721.16;;;11.11;86.59
60258;BME280;46115;44.484;11.314;2024-03-02T23:54:45;99717.75;;;10.67;89.21
60258;BME280;46115;44.484;11.314;2024-03-02T23:58:47;99710.59;;;10.83;88.96
